Time;durP1;ratioP1;P1;durP2;ratioP2;P2;SDS_P1;SDS_P2;PMS_P1;PMS_P2;Temp;Humidity;BMP_temperature;BMP_pressure;BME280_temperature;BME280_humidity;BME280_pressure;Samples;Min_cycle;Max_cycle;Signal;HPM_P1;HPM_P2
2022/04/09 00:00:13;;;;;;;7.80;3.10;;;;;;;;;;4991661;28;20679;-56
2022/04/09 00:02:39;;;;;;;10.30;3.37;;;;;;;;;;4998692;28;20814;-55
2022/04/09 00:05:05;;;;;;;8.73;2.70;;;;;;;;;;5000346;28;20202;-55
2022/04/09 00:07:31;;;;;;;8.07;3.03;;;;;;;;;;5002864;28;20216;-56
2022/04/09 00:09:57;;;;;;;10.03;3.37;;;;;;;;;;4996589;28;20736;-56
2022/04/09 00:12:23;;;;;;;11.20;3.27;;;;;;;;;;4993215;28;20197;-56
2022/04/09 00:14:49;;;;;;;10.60;3.10;;;;;;;;;;4991281;28;20305;-56
2022/04/09 00:17:15;;;;;;;8.17;3.43;;;;;;;;;;4996682;28;20220;-56
2022/04/09 00:19:41;;;;;;;4.37;3.03;;;;;;;;;;4991117;28;20224;-56
2022/04/09 00:22:07;;;;;;;9.40;3.30;;;;;;;;;;4991287;28;20243;-55
2022/04/09 00:24:33;;;;;;;9.53;3.27;;;;;;;;;;4997741;28;20197;-56
2022/04/09 00:26:59;;;;;;;6.27;3.37;;;;;;;;;;4996990;28;20283;-55
2022/04/09 00:29:25;;;;;;;11.13;3.03;;;;;;;;;;4999300;28;20230;-56
2022/04/09 00:31:51;;;;;;;8.23;2.90;;;;;;;;;;4997237;28;20199;-56
2022/04/09 00:34:16;;;;;;;6.17;3.70;;;;;;;;;;5000949;28;20296;-56
2022/04/09 00:36:42;;;;;;;10.07;3.40;;;;;;;;;;5000902;28;20204;-56
2022/04/09 00:39:08;;;;;;;8.27;3.50;;;;;;;;;;4988789;28;20906;-56
2022/04/09 00:41:34;;;;;;;11.33;3.40;;;;;;;;;;4993397;28;20193;-56
2022/04/09 00:44:00;;;;;;;11.27;3.80;;;;;;;;;;4994225;28;20221;-56
2022/04/09 00:46:26;;;;;;;8.07;3.60;;;;;;;;;;4996564;28;20711;-56
2022/04/09 00:48:52;;;;;;;9.37;3.90;;;;;;;;;;4986179;28;20208;-57
2022/04/09 00:51:18;;;;;;;9.13;4.03;;;;;;;;;;4993188;28;20200;-55
2022/04/09 00:53:44;;;;;;;13.70;4.10;;;;;;;;;;4990425;28;20291;-55
2022/04/09 00:56:15;;;;;;;10.07;4.10;;;;;;;;;;4991898;28;20193;-57
2022/04/09 00:58:41;;;;;;;9.37;4.27;;;;;;;;;;4988718;28;21132;-57
2022/04/09 01:01:08;;;;;;;9.73;3.60;;;;;;;;;;5014279;28;20192;-56
2022/04/09 01:03:34;;;;;;;9.40;3.77;;;;;;;;;;5004505;28;20215;-57
2022/04/09 01:06:00;;;;;;;6.33;3.50;;;;;;;;;;5007261;28;20216;-56
2022/04/09 01:08:26;;;;;;;11.77;4.13;;;;;;;;;;5000128;28;20351;-56
2022/04/09 01:10:52;;;;;;;10.97;4.43;;;;;;;;;;5000772;28;20812;-57
2022/04/09 01:13:18;;;;;;;7.63;4.10;;;;;;;;;;5001956;28;20278;-55
2022/04/09 01:15:44;;;;;;;7.67;3.60;;;;;;;;;;4999865;28;20277;-55
2022/04/09 01:18:10;;;;;;;11.60;3.50;;;;;;;;;;4997912;28;20195;-55
2022/04/09 01:20:36;;;;;;;10.93;3.53;;;;;;;;;;4989055;28;20280;-56
2022/04/09 01:23:02;;;;;;;12.13;3.20;;;;;;;;;;4992850;28;20926;-55
2022/04/09 01:25:28;;;;;;;13.13;3.53;;;;;;;;;;4988068;28;20827;-57
2022/04/09 01:27:54;;;;;;;10.03;3.80;;;;;;;;;;4988761;28;20310;-55
2022/04/09 01:30:20;;;;;;;12.03;4.07;;;;;;;;;;4983343;28;20717;-54
2022/04/09 01:32:46;;;;;;;11.90;4.40;;;;;;;;;;4988225;28;20209;-56
2022/04/09 01:35:12;;;;;;;10.97;3.53;;;;;;;;;;4996844;28;20185;-57
2022/04/09 01:37:39;;;;;;;11.73;4.33;;;;;;;;;;4990833;28;20243;-56
2022/04/09 01:40:05;;;;;;;10.53;3.93;;;;;;;;;;4998895;28;20612;-56
2022/04/09 01:42:31;;;;;;;11.80;3.80;;;;;;;;;;5000474;28;20861;-56
2022/04/09 01:44:57;;;;;;;15.67;4.60;;;;;;;;;;4992383;28;20282;-55
2022/04/09 01:47:23;;;;;;;12.33;3.80;;;;;;;;;;4990685;28;20194;-56
2022/04/09 01:49:49;;;;;;;9.17;4.43;;;;;;;;;;4989828;28;20670;-56
2022/04/09 01:52:15;;;;;;;15.83;4.07;;;;;;;;;;4993438;28;20698;-56
2022/04/09 01:54:41;;;;;;;15.40;4.40;;;;;;;;;;4995466;28;20255;-56
2022/04/09 01:57:07;;;;;;;15.67;4.07;;;;;;;;;;4991297;28;20781;-55
2022/04/09 01:59:33;;;;;;;15.00;3.80;;;;;;;;;;4989579;28;20189;-56
2022/04/09 02:01:59;;;;;;;15.37;4.03;;;;;;;;;;4992936;28;20194;-57
2022/04/09 02:04:25;;;;;;;12.27;4.17;;;;;;;;;;4998886;28;20551;-57
2022/04/09 02:06:51;;;;;;;15.63;3.83;;;;;;;;;;5005083;28;20216;-57
2022/04/09 02:09:17;;;;;;;13.30;3.80;;;;;;;;;;4997940;28;20219;-57
2022/04/09 02:11:43;;;;;;;15.33;4.00;;;;;;;;;;5001900;28;20642;-57
2022/04/09 02:14:10;;;;;;;14.33;4.00;;;;;;;;;;5000017;28;20304;-56
2022/04/09 02:16:36;;;;;;;10.70;3.63;;;;;;;;;;4999728;28;20247;-57
2022/04/09 02:19:02;;;;;;;16.77;4.57;;;;;;;;;;5002075;28;20808;-56
2022/04/09 02:21:28;;;;;;;15.93;4.40;;;;;;;;;;4999750;28;20711;-56
2022/04/09 02:23:54;;;;;;;12.90;4.07;;;;;;;;;;5000034;28;20197;-56
2022/04/09 02:26:20;;;;;;;17.70;5.07;;;;;;;;;;4999717;28;20217;-57
2022/04/09 02:28:48;;;;;;;12.53;4.17;;;;;;;;;;4998795;28;20232;-55
2022/04/09 02:31:17;;;;;;;11.93;4.00;;;;;;;;;;4998911;28;20239;-56
2022/04/09 02:33:43;;;;;;;15.50;4.67;;;;;;;;;;5004376;28;20209;-56
2022/04/09 02:36:11;;;;;;;17.67;4.50;;;;;;;;;;4998226;28;20810;-56
2022/04/09 02:38:37;;;;;;;10.23;3.70;;;;;;;;;;4995476;28;20199;-56
2022/04/09 02:41:03;;;;;;;15.43;3.67;;;;;;;;;;4988733;28;20197;-56
2022/04/09 02:43:29;;;;;;;12.37;4.00;;;;;;;;;;4996856;28;20338;-56
2022/04/09 02:45:55;;;;;;;18.67;4.53;;;;;;;;;;4991051;28;20323;-56
2022/04/09 02:48:21;;;;;;;16.43;4.47;;;;;;;;;;4994633;28;20532;-57
2022/04/09 02:50:48;;;;;;;11.63;4.00;;;;;;;;;;4994751;28;20193;-55
2022/04/09 02:53:14;;;;;;;11.97;4.20;;;;;;;;;;4995806;28;20216;-57
2022/04/09 02:55:40;;;;;;;13.80;3.87;;;;;;;;;;4992466;28;20189;-56
2022/04/09 02:58:06;;;;;;;11.97;4.33;;;;;;;;;;4988727;28;20193;-55
2022/04/09 03:00:32;;;;;;;14.93;4.37;;;;;;;;;;4993477;28;20774;-56
2022/04/09 03:02:58;;;;;;;15.23;3.93;;;;;;;;;;5001473;28;20209;-56
2022/04/09 03:05:24;;;;;;;15.73;3.80;;;;;;;;;;4997012;28;20209;-56
2022/04/09 03:07:50;;;;;;;12.70;4.00;;;;;;;;;;4998903;28;20213;-56
2022/04/09 03:10:16;;;;;;;11.70;3.50;;;;;;;;;;4997229;28;20702;-56
2022/04/09 03:12:43;;;;;;;12.53;3.27;;;;;;;;;;4991272;28;20231;-56
2022/04/09 03:15:09;;;;;;;18.00;3.93;;;;;;;;;;4997040;28;23551;-55
2022/04/09 03:17:35;;;;;;;18.93;4.10;;;;;;;;;;4995311;28;20259;-56
2022/04/09 03:20:01;;;;;;;12.03;3.93;;;;;;;;;;4986939;28;20280;-56
2022/04/09 03:22:28;;;;;;;15.13;3.43;;;;;;;;;;4987393;28;20297;-57
2022/04/09 03:24:57;;;;;;;16.23;4.10;;;;;;;;;;4989231;28;21065;-57
2022/04/09 03:27:23;;;;;;;12.23;4.27;;;;;;;;;;4990310;28;20600;-57
2022/04/09 03:29:49;;;;;;;16.23;4.30;;;;;;;;;;4992435;28;20782;-56
2022/04/09 03:32:15;;;;;;;15.13;3.97;;;;;;;;;;4989764;28;20218;-56
2022/04/09 03:34:41;;;;;;;13.17;3.97;;;;;;;;;;4994662;28;20679;-56
2022/04/09 03:37:07;;;;;;;10.57;3.67;;;;;;;;;;4995243;28;20533;-56
2022/04/09 03:39:33;;;;;;;13.80;4.20;;;;;;;;;;4995622;28;20189;-57
2022/04/09 03:41:59;;;;;;;21.33;4.60;;;;;;;;;;4997968;28;20275;-56
2022/04/09 03:44:25;;;;;;;15.63;4.30;;;;;;;;;;5011299;28;20280;-56
2022/04/09 03:46:57;;;;;;;16.73;4.67;;;;;;;;;;5001222;28;20635;-57
2022/04/09 03:49:23;;;;;;;16.80;4.07;;;;;;;;;;5001653;28;20185;-55
2022/04/09 03:51:49;;;;;;;19.47;4.87;;;;;;;;;;5000632;28;20216;-57
2022/04/09 03:54:15;;;;;;;12.20;4.00;;;;;;;;;;4991127;28;21009;-55
2022/04/09 03:56:42;;;;;;;13.37;3.90;;;;;;;;;;4990221;28;20647;-56
2022/04/09 03:59:08;;;;;;;15.13;4.60;;;;;;;;;;4995651;28;20193;-56
2022/04/09 04:01:34;;;;;;;14.77;4.17;;;;;;;;;;4992759;28;20185;-55
2022/04/09 04:04:00;;;;;;;12.43;4.20;;;;;;;;;;5002515;28;20204;-56
2022/04/09 04:06:26;;;;;;;16.20;4.80;;;;;;;;;;5000141;28;20336;-56
2022/04/09 04:08:52;;;;;;;17.00;4.60;;;;;;;;;;4999665;28;20192;-55
2022/04/09 04:11:18;;;;;;;13.87;4.20;;;;;;;;;;4997537;28;20200;-56
2022/04/09 04:13:44;;;;;;;20.33;4.90;;;;;;;;;;4997552;28;20686;-56
2022/04/09 04:16:10;;;;;;;17.10;4.20;;;;;;;;;;4999678;28;20215;-57
2022/04/09 04:18:36;;;;;;;11.50;4.00;;;;;;;;;;4987805;28;21034;-56
2022/04/09 04:21:03;;;;;;;18.57;4.20;;;;;;;;;;4993691;28;20197;-55
2022/04/09 04:23:29;;;;;;;13.33;3.80;;;;;;;;;;4986221;28;20827;-56
2022/04/09 04:25:55;;;;;;;13.70;4.10;;;;;;;;;;4984981;28;20203;-56
2022/04/09 04:28:21;;;;;;;12.50;3.77;;;;;;;;;;4990154;28;20403;-56
2022/04/09 04:30:46;;;;;;;13.57;3.67;;;;;;;;;;4987803;28;20284;-56
2022/04/09 04:33:12;;;;;;;13.20;3.83;;;;;;;;;;4989129;28;20351;-56
2022/04/09 04:35:38;;;;;;;20.30;4.17;;;;;;;;;;4990965;28;20224;-56
2022/04/09 04:38:04;;;;;;;13.43;3.70;;;;;;;;;;4991246;28;20198;-56
2022/04/09 04:40:30;;;;;;;16.70;4.83;;;;;;;;;;4989980;28;20189;-57
2022/04/09 04:42:56;;;;;;;17.00;4.37;;;;;;;;;;4988997;28;20200;-56
2022/04/09 04:45:22;;;;;;;13.67;4.13;;;;;;;;;;4985393;28;20205;-56
2022/04/09 04:47:49;;;;;;;15.73;4.37;;;;;;;;;;4995580;28;20196;-55
2022/04/09 04:50:15;;;;;;;18.23;4.23;;;;;;;;;;4983612;28;20203;-56
2022/04/09 04:52:41;;;;;;;15.83;4.37;;;;;;;;;;4993590;28;20201;-57
2022/04/09 04:55:08;;;;;;;18.20;4.07;;;;;;;;;;4997087;28;20574;-56
2022/04/09 04:57:41;;;;;;;14.00;4.30;;;;;;;;;;4991986;28;20189;-56
2022/04/09 05:00:08;;;;;;;13.70;4.00;;;;;;;;;;4991853;28;20227;-56
2022/04/09 05:02:34;;;;;;;16.70;4.00;;;;;;;;;;4998002;28;20701;-56
2022/04/09 05:05:03;;;;;;;9.67;3.40;;;;;;;;;;4996361;28;20532;-56
2022/04/09 05:07:38;;;;;;;11.17;4.17;;;;;;;;;;4995278;28;20233;-56
2022/04/09 05:10:05;;;;;;;14.93;4.17;;;;;;;;;;4991319;28;20666;-57
2022/04/09 05:12:32;;;;;;;11.67;3.90;;;;;;;;;;4997114;28;20190;-55
2022/04/09 05:14:58;;;;;;;12.70;3.70;;;;;;;;;;4995824;28;20201;-56
2022/04/09 05:17:24;;;;;;;16.00;4.13;;;;;;;;;;4994484;28;20193;-55
2022/04/09 05:19:50;;;;;;;17.53;4.10;;;;;;;;;;4988081;28;20193;-56
2022/04/09 05:22:16;;;;;;;16.60;4.33;;;;;;;;;;4988378;28;20193;-56
2022/04/09 05:24:42;;;;;;;13.27;3.77;;;;;;;;;;4986142;28;20201;-55
2022/04/09 05:27:08;;;;;;;17.77;3.83;;;;;;;;;;4990853;28;20208;-57
2022/04/09 05:29:34;;;;;;;19.93;4.00;;;;;;;;;;4995066;28;20610;-56
2022/04/09 05:32:00;;;;;;;16.73;3.67;;;;;;;;;;4991088;28;20239;-56
2022/04/09 05:34:26;;;;;;;13.10;4.00;;;;;;;;;;4999530;28;20607;-57
2022/04/09 05:36:52;;;;;;;12.93;3.80;;;;;;;;;;4986848;28;20671;-57
2022/04/09 05:39:18;;;;;;;11.03;3.70;;;;;;;;;;4990149;28;20225;-57
2022/04/09 05:41:44;;;;;;;16.63;4.47;;;;;;;;;;4988880;28;20276;-56
2022/04/09 05:44:10;;;;;;;17.57;3.97;;;;;;;;;;4989093;28;20193;-55
2022/04/09 05:46:36;;;;;;;12.03;4.07;;;;;;;;;;4988067;28;20210;-56
2022/04/09 05:49:02;;;;;;;13.90;4.70;;;;;;;;;;4987214;28;20193;-56
2022/04/09 05:51:29;;;;;;;14.87;4.37;;;;;;;;;;4987370;28;20193;-56
2022/04/09 05:53:55;;;;;;;12.83;4.17;;;;;;;;;;4986510;28;21240;-57
2022/04/09 05:56:22;;;;;;;15.80;3.97;;;;;;;;;;4987854;28;20199;-56
2022/04/09 05:58:48;;;;;;;13.83;4.23;;;;;;;;;;4997854;28;20299;-56
2022/04/09 06:01:14;;;;;;;19.23;4.53;;;;;;;;;;4986748;28;20883;-56
2022/04/09 06:03:40;;;;;;;15.67;4.50;;;;;;;;;;4991199;28;20609;-56
2022/04/09 06:06:06;;;;;;;12.83;3.50;;;;;;;;;;4994130;28;20232;-56
2022/04/09 06:08:35;;;;;;;17.10;4.73;;;;;;;;;;4995910;28;20666;-57
2022/04/09 06:11:01;;;;;;;14.40;4.47;;;;;;;;;;4990998;28;20311;-55
2022/04/09 06:13:27;;;;;;;16.37;4.30;;;;;;;;;;4997626;28;20210;-57
2022/04/09 06:15:53;;;;;;;21.20;4.73;;;;;;;;;;5002812;28;20220;-56
2022/04/09 06:18:19;;;;;;;20.50;4.17;;;;;;;;;;4999045;28;20194;-56
2022/04/09 06:20:45;;;;;;;13.17;4.73;;;;;;;;;;4992351;28;20246;-56
2022/04/09 06:23:11;;;;;;;11.70;3.87;;;;;;;;;;5001835;28;20223;-57
2022/04/09 06:25:37;;;;;;;15.47;4.57;;;;;;;;;;4999556;28;20275;-55
2022/04/09 06:28:03;;;;;;;16.83;4.60;;;;;;;;;;4999570;28;21169;-55
2022/04/09 06:30:29;;;;;;;15.10;4.87;;;;;;;;;;4986295;28;20267;-57
2022/04/09 06:32:55;;;;;;;14.90;4.90;;;;;;;;;;4998015;28;20647;-56
2022/04/09 06:35:21;;;;;;;18.20;4.50;;;;;;;;;;5003311;28;20619;-55
2022/04/09 06:37:47;;;;;;;14.23;4.10;;;;;;;;;;4993902;28;20194;-56
2022/04/09 06:40:14;;;;;;;14.73;5.07;;;;;;;;;;4999198;28;20193;-55
2022/04/09 06:42:40;;;;;;;13.63;4.00;;;;;;;;;;4996325;28;20189;-57
2022/04/09 06:45:08;;;;;;;12.77;4.50;;;;;;;;;;5006200;28;20201;-54
2022/04/09 06:47:35;;;;;;;12.90;3.93;;;;;;;;;;5002132;28;20186;-57
2022/04/09 06:50:01;;;;;;;14.57;4.13;;;;;;;;;;4994417;28;20207;-56
2022/04/09 06:52:27;;;;;;;14.30;4.33;;;;;;;;;;4989630;28;20197;-56
2022/04/09 06:54:55;;;;;;;14.63;4.13;;;;;;;;;;4989154;28;20583;-57
2022/04/09 06:57:21;;;;;;;18.27;4.47;;;;;;;;;;4994358;28;20195;-57
2022/04/09 06:59:47;;;;;;;18.33;4.47;;;;;;;;;;4994649;28;22056;-56
2022/04/09 07:02:13;;;;;;;14.43;4.17;;;;;;;;;;4993691;28;20724;-58
2022/04/09 07:04:39;;;;;;;12.03;3.27;;;;;;;;;;4994895;28;20200;-56
2022/04/09 07:07:05;;;;;;;9.77;3.60;;;;;;;;;;4997452;28;20270;-56
2022/04/09 07:09:31;;;;;;;12.77;3.97;;;;;;;;;;4981292;28;20272;-57
2022/04/09 07:11:57;;;;;;;14.07;3.80;;;;;;;;;;5000962;28;20665;-57
2022/04/09 07:14:23;;;;;;;11.37;3.93;;;;;;;;;;4997286;28;20300;-57
2022/04/09 07:16:49;;;;;;;14.97;4.10;;;;;;;;;;4999464;28;20411;-56
2022/04/09 07:19:15;;;;;;;12.07;3.50;;;;;;;;;;4994958;28;20186;-57
2022/04/09 07:21:41;;;;;;;12.77;4.30;;;;;;;;;;4995734;28;20621;-57
2022/04/09 07:24:07;;;;;;;14.60;3.70;;;;;;;;;;4995440;28;21120;-57
2022/04/09 07:26:33;;;;;;;15.53;4.67;;;;;;;;;;4993498;28;20185;-57
2022/04/09 07:28:59;;;;;;;15.37;4.03;;;;;;;;;;5000376;28;20291;-57
2022/04/09 07:31:25;;;;;;;12.67;3.47;;;;;;;;;;4995850;28;20279;-57
2022/04/09 07:33:51;;;;;;;11.07;4.07;;;;;;;;;;5000409;28;20217;-57
2022/04/09 07:36:17;;;;;;;19.10;4.23;;;;;;;;;;5001289;28;20223;-57
2022/04/09 07:38:43;;;;;;;12.27;3.90;;;;;;;;;;5002407;28;20205;-57
2022/04/09 07:41:09;;;;;;;15.93;4.00;;;;;;;;;;4998559;28;20213;-57
2022/04/09 07:43:35;;;;;;;14.73;3.97;;;;;;;;;;5001993;28;20198;-58
2022/04/09 07:46:01;;;;;;;12.40;3.33;;;;;;;;;;5002619;28;21188;-58
2022/04/09 07:48:27;;;;;;;17.10;4.20;;;;;;;;;;5006832;28;20268;-56
2022/04/09 07:50:53;;;;;;;12.67;3.77;;;;;;;;;;5010075;28;20228;-57
2022/04/09 07:53:18;;;;;;;14.57;4.27;;;;;;;;;;5007208;28;20227;-57
2022/04/09 07:55:44;;;;;;;13.73;4.07;;;;;;;;;;5009029;28;20604;-57
2022/04/09 07:58:14;;;;;;;14.30;4.17;;;;;;;;;;5001425;28;20186;-57
2022/04/09 08:00:40;;;;;;;12.03;3.60;;;;;;;;;;5006171;28;20189;-56
2022/04/09 08:03:08;;;;;;;11.40;3.57;;;;;;;;;;4993993;28;21181;-57
2022/04/09 08:05:34;;;;;;;11.10;3.53;;;;;;;;;;4994096;28;20558;-56
2022/04/09 08:08:01;;;;;;;10.00;3.67;;;;;;;;;;4999591;28;20240;-57
2022/04/09 08:10:27;;;;;;;12.90;3.60;;;;;;;;;;4994494;28;20355;-57
2022/04/09 08:12:53;;;;;;;12.03;4.10;;;;;;;;;;4995761;28;20197;-57
2022/04/09 08:15:19;;;;;;;9.67;3.27;;;;;;;;;;4997548;28;20315;-57
2022/04/09 08:17:46;;;;;;;12.27;3.53;;;;;;;;;;4999877;28;20185;-57
2022/04/09 08:20:13;;;;;;;9.63;3.43;;;;;;;;;;5002012;28;20189;-57
2022/04/09 08:22:40;;;;;;;11.60;3.60;;;;;;;;;;4995314;28;20703;-58
2022/04/09 08:25:06;;;;;;;11.10;3.10;;;;;;;;;;5006964;28;20271;-58
2022/04/09 08:27:32;;;;;;;14.10;3.67;;;;;;;;;;5003816;28;20197;-58
2022/04/09 08:29:57;;;;;;;8.93;3.53;;;;;;;;;;5000639;28;20314;-57
2022/04/09 08:32:25;;;;;;;9.37;3.43;;;;;;;;;;5004896;28;20193;-57
2022/04/09 08:34:52;;;;;;;10.07;3.30;;;;;;;;;;4999806;28;20701;-58
2022/04/09 08:37:18;;;;;;;7.20;3.00;;;;;;;;;;5004759;28;20193;-58
2022/04/09 08:39:44;;;;;;;9.70;3.70;;;;;;;;;;4996894;28;20216;-58
2022/04/09 08:42:10;;;;;;;9.20;3.20;;;;;;;;;;5005649;28;20189;-57
2022/04/09 08:44:36;;;;;;;8.83;3.30;;;;;;;;;;5000846;28;20194;-58
2022/04/09 08:47:02;;;;;;;8.73;3.27;;;;;;;;;;4999121;28;20306;-57
2022/04/09 08:49:29;;;;;;;10.33;3.30;;;;;;;;;;5007522;28;20664;-57
2022/04/09 08:51:55;;;;;;;9.53;3.40;;;;;;;;;;5004869;28;20308;-57
2022/04/09 08:54:21;;;;;;;10.43;3.83;;;;;;;;;;5007474;28;20206;-57
2022/04/09 08:56:49;;;;;;;12.90;3.87;;;;;;;;;;5002819;28;20193;-57
2022/04/09 08:59:15;;;;;;;10.73;3.70;;;;;;;;;;5008081;28;20192;-57
2022/04/09 09:01:41;;;;;;;9.87;3.30;;;;;;;;;;4995933;28;20216;-57
2022/04/09 09:04:07;;;;;;;10.40;3.70;;;;;;;;;;4997426;28;20201;-58
2022/04/09 09:06:35;;;;;;;11.17;3.50;;;;;;;;;;4994828;28;20267;-57
2022/04/09 09:09:02;;;;;;;7.57;2.90;;;;;;;;;;4994691;28;20208;-56
2022/04/09 09:11:28;;;;;;;7.63;3.00;;;;;;;;;;4993784;28;20193;-57
2022/04/09 09:13:54;;;;;;;9.90;3.43;;;;;;;;;;5001054;28;20232;-59
2022/04/09 09:16:25;;;;;;;11.77;3.13;;;;;;;;;;5014123;28;20189;-57
2022/04/09 09:18:51;;;;;;;7.13;2.77;;;;;;;;;;5001265;28;20201;-57
2022/04/09 09:21:19;;;;;;;9.43;3.47;;;;;;;;;;5006573;28;20276;-57
2022/04/09 09:23:45;;;;;;;15.97;3.53;;;;;;;;;;4998954;28;20213;-56
2022/04/09 09:26:11;;;;;;;25.13;3.73;;;;;;;;;;4991849;28;20359;-55
2022/04/09 09:28:37;;;;;;;19.80;3.40;;;;;;;;;;5001837;28;20260;-56
2022/04/09 09:31:04;;;;;;;14.67;3.50;;;;;;;;;;5002494;28;20308;-55
2022/04/09 09:33:30;;;;;;;17.40;4.10;;;;;;;;;;5006206;28;20236;-55
2022/04/09 09:35:59;;;;;;;13.23;3.37;;;;;;;;;;5010262;28;20657;-55
2022/04/09 09:38:29;;;;;;;12.80;3.90;;;;;;;;;;5003055;28;20201;-56
2022/04/09 09:40:55;;;;;;;10.73;3.50;;;;;;;;;;4992782;28;20538;-56
2022/04/09 09:43:22;;;;;;;20.33;3.43;;;;;;;;;;4997382;28;20275;-56
2022/04/09 09:45:48;;;;;;;9.27;3.50;;;;;;;;;;5002560;28;20268;-56
2022/04/09 09:48:29;;;;;;;13.30;3.37;;;;;;;;;;4996492;28;20201;-56
2022/04/09 09:50:56;;;;;;;11.63;3.00;;;;;;;;;;4994556;28;20201;-56
2022/04/09 09:53:38;;;;;;;13.77;3.57;;;;;;;;;;4998402;28;20216;-56
2022/04/09 09:56:04;;;;;;;10.40;4.10;;;;;;;;;;4997602;28;20576;-56
2022/04/09 09:58:31;;;;;;;13.03;3.50;;;;;;;;;;5003869;28;20212;-55
2022/04/09 10:00:57;;;;;;;9.10;3.30;;;;;;;;;;4991985;28;20271;-56
2022/04/09 10:03:23;;;;;;;10.53;3.30;;;;;;;;;;4990107;28;20227;-55
2022/04/09 10:05:50;;;;;;;9.23;3.20;;;;;;;;;;5001590;28;20220;-56
2022/04/09 10:08:16;;;;;;;8.90;3.30;;;;;;;;;;5001291;28;20844;-56
2022/04/09 10:10:46;;;;;;;6.53;3.03;;;;;;;;;;5001668;28;20218;-56
2022/04/09 10:13:12;;;;;;;5.13;2.73;;;;;;;;;;4998017;28;20220;-56
2022/04/09 10:15:39;;;;;;;7.83;2.80;;;;;;;;;;5002699;28;20193;-56
2022/04/09 10:18:05;;;;;;;7.83;3.00;;;;;;;;;;4995821;28;20677;-56
2022/04/09 10:20:31;;;;;;;7.37;2.90;;;;;;;;;;4995849;28;20300;-56
2022/04/09 10:22:58;;;;;;;6.77;2.97;;;;;;;;;;4993437;28;20189;-56
2022/04/09 10:25:28;;;;;;;7.50;2.87;;;;;;;;;;4994279;28;21392;-56
2022/04/09 10:27:59;;;;;;;7.63;2.60;;;;;;;;;;4997798;28;20236;-56
2022/04/09 10:30:25;;;;;;;8.23;2.63;;;;;;;;;;4992214;28;20197;-56
2022/04/09 10:32:53;;;;;;;6.55;3.13;;;;;;;;;;4993413;28;20271;-56
2022/04/09 10:35:23;;;;;;;7.10;3.10;;;;;;;;;;4992811;28;20677;-57
2022/04/09 10:38:10;;;;;;;8.77;3.45;;;;;;;;;;4996178;28;20620;-56
2022/04/09 10:40:57;;;;;;;9.90;3.83;;;;;;;;;;4990470;28;20202;-56
2022/04/09 10:43:26;;;;;;;9.02;3.40;;;;;;;;;;4990754;28;20185;-55
2022/04/09 10:46:01;;;;;;;10.00;3.20;;;;;;;;;;4982571;28;20285;-56
2022/04/09 10:48:29;;;;;;;8.90;3.50;;;;;;;;;;4978795;28;20193;-56
2022/04/09 10:50:55;;;;;;;8.95;3.25;;;;;;;;;;4985794;28;20192;-56
2022/04/09 10:53:22;;;;;;;7.15;3.25;;;;;;;;;;4994886;28;20228;-56
2022/04/09 10:56:06;;;;;;;10.27;3.50;;;;;;;;;;4996480;28;20537;-56
2022/04/09 10:58:32;;;;;;;8.95;3.25;;;;;;;;;;4988054;28;20225;-55
2022/04/09 11:00:58;;;;;;;8.38;3.60;;;;;;;;;;5000292;28;20612;-54
2022/04/09 11:03:30;;;;;;;10.57;3.88;;;;;;;;;;4997365;28;20275;-54
2022/04/09 11:06:15;;;;;;;7.03;3.30;;;;;;;;;;5000440;28;20718;-54
2022/04/09 11:08:42;;;;;;;7.50;3.08;;;;;;;;;;5005712;28;20194;-54
2022/04/09 11:11:08;;;;;;;6.97;3.13;;;;;;;;;;5009618;28;20185;-54
2022/04/09 11:13:34;;;;;;;5.07;3.05;;;;;;;;;;5006452;28;20897;-54
2022/04/09 11:16:00;;;;;;;5.32;2.90;;;;;;;;;;5005541;28;20367;-54
2022/04/09 11:18:26;;;;;;;7.10;2.53;;;;;;;;;;5005665;28;20190;-54
2022/04/09 11:20:52;;;;;;;4.53;2.17;;;;;;;;;;4995310;28;20190;-53
2022/04/09 11:23:19;;;;;;;6.70;2.22;;;;;;;;;;5007172;28;20578;-54
2022/04/09 11:25:46;;;;;;;3.85;2.00;;;;;;;;;;5010034;28;20561;-54
2022/04/09 11:28:19;;;;;;;5.13;2.05;;;;;;;;;;5003664;28;20228;-54
2022/04/09 11:30:54;;;;;;;5.47;2.30;;;;;;;;;;5002799;28;20308;-54
2022/04/09 11:33:20;;;;;;;5.47;2.00;;;;;;;;;;5003976;28;20262;-54
2022/04/09 11:35:46;;;;;;;5.40;2.20;;;;;;;;;;5003213;28;20635;-54
2022/04/09 11:38:12;;;;;;;3.47;2.00;;;;;;;;;;5008387;28;20193;-54
2022/04/09 11:40:46;;;;;;;5.20;2.00;;;;;;;;;;5006097;28;20182;-54
2022/04/09 11:43:12;;;;;;;4.80;2.00;;;;;;;;;;5002668;28;20212;-54
2022/04/09 11:45:38;;;;;;;6.00;2.05;;;;;;;;;;4995718;28;20646;-54
2022/04/09 11:48:04;;;;;;;6.70;2.05;;;;;;;;;;4991164;28;20673;-54
2022/04/09 11:50:33;;;;;;;4.78;1.90;;;;;;;;;;4997019;28;20198;-54
2022/04/09 11:53:11;;;;;;;5.15;1.98;;;;;;;;;;4996035;28;20213;-54
2022/04/09 11:55:38;;;;;;;5.00;1.83;;;;;;;;;;4998903;28;20185;-55
2022/04/09 11:58:04;;;;;;;3.80;1.80;;;;;;;;;;4998322;28;20557;-54
2022/04/09 12:00:30;;;;;;;4.80;2.00;;;;;;;;;;4985486;28;20200;-54
2022/04/09 12:03:02;;;;;;;3.50;1.83;;;;;;;;;;4988403;28;20197;-53
2022/04/09 12:05:28;;;;;;;2.97;1.90;;;;;;;;;;4990972;28;20272;-54
2022/04/09 12:07:54;;;;;;;4.50;1.95;;;;;;;;;;4985736;28;20307;-54
2022/04/09 12:10:26;;;;;;;3.22;1.88;;;;;;;;;;4992147;28;20273;-53
2022/04/09 12:12:59;;;;;;;3.63;2.17;;;;;;;;;;4985184;28;20204;-53
2022/04/09 12:15:29;;;;;;;3.45;2.08;;;;;;;;;;4992382;28;20185;-53
2022/04/09 12:17:55;;;;;;;3.63;2.20;;;;;;;;;;4996974;28;20217;-53
2022/04/09 12:20:30;;;;;;;5.45;2.70;;;;;;;;;;4989247;28;20185;-53
2022/04/09 12:22:57;;;;;;;2.70;2.35;;;;;;;;;;4998772;28;20281;-53
2022/04/09 12:25:35;;;;;;;4.63;2.53;;;;;;;;;;4986857;28;20200;-54
2022/04/09 12:28:03;;;;;;;4.25;2.15;;;;;;;;;;5001199;28;20240;-53
2022/04/09 12:30:47;;;;;;;4.18;2.13;;;;;;;;;;5001570;28;20192;-53
2022/04/09 12:33:13;;;;;;;4.95;2.17;;;;;;;;;;4999994;28;20209;-53
2022/04/09 12:35:39;;;;;;;3.88;2.17;;;;;;;;;;4999495;28;20194;-54
2022/04/09 12:38:05;;;;;;;4.78;2.13;;;;;;;;;;5002586;28;20185;-53
2022/04/09 12:40:32;;;;;;;5.25;1.90;;;;;;;;;;4996824;28;20219;-57
2022/04/09 12:42:58;;;;;;;6.13;2.58;;;;;;;;;;5000943;28;20227;-53
2022/04/09 12:45:25;;;;;;;5.32;2.83;;;;;;;;;;4994630;28;20766;-53
2022/04/09 12:47:53;;;;;;;5.30;2.40;;;;;;;;;;4993776;28;20220;-56
2022/04/09 12:50:24;;;;;;;6.20;2.75;;;;;;;;;;5001928;28;20247;-54
2022/04/09 12:52:51;;;;;;;6.57;2.78;;;;;;;;;;4987243;28;20181;-54
2022/04/09 12:55:17;;;;;;;4.15;2.38;;;;;;;;;;5003686;28;20209;-54
2022/04/09 12:57:43;;;;;;;3.25;2.08;;;;;;;;;;5004897;28;20609;-54
2022/04/09 13:00:09;;;;;;;4.00;2.15;;;;;;;;;;4998095;28;20189;-55
2022/04/09 13:02:36;;;;;;;4.53;2.35;;;;;;;;;;4999255;28;20310;-54
2022/04/09 13:05:02;;;;;;;4.65;2.05;;;;;;;;;;4991883;28;20243;-55
2022/04/09 13:07:28;;;;;;;1.70;1.50;;;;;;;;;;4997401;28;20677;-54
2022/04/09 13:09:54;;;;;;;3.10;2.00;;;;;;;;;;4996714;28;20205;-56
2022/04/09 13:12:20;;;;;;;3.38;2.00;;;;;;;;;;4999371;28;20196;-55
2022/04/09 13:14:46;;;;;;;3.05;1.90;;;;;;;;;;5004665;28;20297;-55
2022/04/09 13:17:12;;;;;;;4.18;1.95;;;;;;;;;;5004188;28;20737;-53
2022/04/09 13:19:38;;;;;;;3.88;2.10;;;;;;;;;;5005621;28;20200;-53
2022/04/09 13:22:04;;;;;;;3.75;1.75;;;;;;;;;;5006792;28;20194;-54
2022/04/09 13:24:30;;;;;;;2.22;1.95;;;;;;;;;;5004775;28;20770;-55
2022/04/09 13:26:56;;;;;;;2.50;1.60;;;;;;;;;;4994938;28;20185;-55
2022/04/09 13:29:22;;;;;;;2.53;1.77;;;;;;;;;;4996949;28;20789;-54
2022/04/09 13:31:48;;;;;;;4.15;1.65;;;;;;;;;;4992879;28;20200;-55
2022/04/09 13:34:17;;;;;;;6.47;1.77;;;;;;;;;;4996358;28;20635;-55
2022/04/09 13:36:46;;;;;;;3.63;1.85;;;;;;;;;;4997248;28;20225;-55
2022/04/09 13:39:12;;;;;;;2.90;1.77;;;;;;;;;;4996490;28;20193;-54
2022/04/09 13:41:38;;;;;;;2.63;1.90;;;;;;;;;;4991940;28;20178;-55
2022/04/09 13:44:05;;;;;;;3.58;1.75;;;;;;;;;;4994883;28;20221;-54
2022/04/09 13:46:30;;;;;;;2.63;2.00;;;;;;;;;;4993486;28;20654;-54
2022/04/09 13:48:56;;;;;;;2.25;1.98;;;;;;;;;;4992940;28;20205;-54
2022/04/09 13:51:22;;;;;;;3.28;2.10;;;;;;;;;;5001685;28;20185;-54
2022/04/09 13:53:49;;;;;;;5.18;1.88;;;;;;;;;;5001086;28;20291;-54
2022/04/09 13:56:15;;;;;;;2.42;1.80;;;;;;;;;;4992439;28;20560;-54
2022/04/09 13:58:41;;;;;;;3.33;2.00;;;;;;;;;;4993474;28;20189;-54
2022/04/09 14:01:07;;;;;;;3.50;2.00;;;;;;;;;;4989191;28;20260;-54
2022/04/09 14:03:33;;;;;;;3.97;2.00;;;;;;;;;;4993154;28;20189;-54
2022/04/09 14:05:59;;;;;;;4.22;2.05;;;;;;;;;;4994581;28;20717;-54
2022/04/09 14:08:25;;;;;;;2.90;2.05;;;;;;;;;;4997485;28;20197;-54
2022/04/09 14:10:51;;;;;;;2.22;1.98;;;;;;;;;;4993586;28;20244;-54
2022/04/09 14:13:17;;;;;;;2.10;1.90;;;;;;;;;;4993337;28;20493;-54
2022/04/09 14:15:43;;;;;;;3.40;2.10;;;;;;;;;;4996932;28;20280;-54
2022/04/09 14:18:09;;;;;;;2.75;1.90;;;;;;;;;;4997343;28;20197;-54
2022/04/09 14:20:35;;;;;;;3.05;1.80;;;;;;;;;;4992639;28;20188;-54
2022/04/09 14:23:04;;;;;;;2.67;1.85;;;;;;;;;;4996403;28;20193;-54
2022/04/09 14:25:31;;;;;;;3.20;1.95;;;;;;;;;;4987028;28;20217;-55
2022/04/09 14:27:57;;;;;;;2.08;1.75;;;;;;;;;;4989633;28;20786;-55
2022/04/09 14:30:23;;;;;;;1.75;1.60;;;;;;;;;;4998545;28;20193;-55
2022/04/09 14:32:49;;;;;;;4.20;1.80;;;;;;;;;;4993596;28;20196;-54